Time;durP1;ratioP1;P1;durP2;ratioP2;P2;SDS_P1;SDS_P2;PMS_P1;PMS_P2;Temp;Humidity;BMP_temperature;BMP_pressure;BME280_temperature;BME280_humidity;BME280_pressure;Samples;Min_cycle;Max_cycle;Signal;HPM_P1;HPM_P2
2023/09/06 00:02:25;;;;;;;19.50;8.10;;;;;;;16.50;70.04;101491.66;111215;1209;96563;-66
2023/09/06 00:04:50;;;;;;;18.10;7.90;;;;;;;16.49;70.16;101485.77;111160;1206;101669;-66
2023/09/06 00:07:15;;;;;;;14.80;7.70;;;;;;;16.46;70.25;101484.70;111007;1206;138952;-65
2023/09/06 00:09:41;;;;;;;20.70;7.20;;;;;;;16.43;70.39;101481.63;111282;1209;97668;-65
2023/09/06 00:12:06;;;;;;;15.70;7.70;;;;;;;16.40;70.51;101481.95;111060;1206;139812;-65
2023/09/06 00:14:31;;;;;;;16.70;9.00;;;;;;;16.38;70.45;101481.72;111221;1211;98868;-65
2023/09/06 00:16:56;;;;;;;13.70;7.90;;;;;;;16.38;70.64;101484.25;111227;1208;96094;-65
2023/09/06 00:19:22;;;;;;;17.60;7.30;;;;;;;16.37;70.78;101481.40;111127;1211;139919;-65
2023/09/06 00:21:47;;;;;;;15.60;8.00;;;;;;;16.36;70.91;101480.16;111161;1211;97591;-65
2023/09/06 00:24:13;;;;;;;19.20;7.60;;;;;;;16.35;70.97;101478.98;111039;1211;140848;-66
2023/09/06 00:26:39;;;;;;;15.30;7.10;;;;;;;16.33;71.16;101476.23;111210;1206;97587;-65
2023/09/06 00:29:08;;;;;;;22.80;8.50;;;;;;;16.31;71.21;101469.12;111146;1209;97652;-65
2023/09/06 00:31:35;;;;;;;15.40;8.00;;;;;;;16.28;71.21;101467.64;111051;1209;138701;-65
2023/09/06 00:34:00;;;;;;;18.50;8.30;;;;;;;16.26;71.36;101465.95;111166;1206;97738;-65
2023/09/06 00:36:29;;;;;;;22.30;7.70;;;;;;;16.24;71.45;101466.76;111099;1206;138720;-65
2023/09/06 00:38:58;;;;;;;19.10;7.80;;;;;;;16.24;71.50;101474.36;111222;1211;99905;-65
2023/09/06 00:41:24;;;;;;;18.70;8.00;;;;;;;16.20;71.58;101473.10;111176;1208;108246;-65
2023/09/06 00:43:49;;;;;;;17.10;8.00;;;;;;;16.18;71.68;101468.19;111117;1209;140331;-65
2023/09/06 00:46:15;;;;;;;21.70;9.00;;;;;;;16.17;71.69;101463.75;111291;1208;97799;-65
2023/09/06 00:48:40;;;;;;;17.60;8.30;;;;;;;16.14;71.83;101465.67;111038;1209;138771;-65
2023/09/06 00:51:07;;;;;;;13.60;8.90;;;;;;;16.13;71.95;101470.07;111104;1209;97684;-65
2023/09/06 00:53:33;;;;;;;19.90;8.30;;;;;;;16.11;71.94;101469.30;111237;1209;140006;-64
2023/09/06 00:55:59;;;;;;;14.90;8.30;;;;;;;16.08;72.07;101465.86;111204;1206;111499;-65
2023/09/06 00:58:27;;;;;;;19.00;8.60;;;;;;;16.01;71.89;101460.26;111143;1211;97696;-65
2023/09/06 01:00:52;;;;;;;17.80;8.60;;;;;;;15.97;72.11;101459.57;111298;1209;139456;-65
2023/09/06 01:03:18;;;;;;;17.90;8.60;;;;;;;15.94;72.24;101460.98;111222;1211;97689;-66
2023/09/06 01:05:55;;;;;;;20.70;9.20;;;;;;;15.91;72.33;101460.23;111044;1212;138753;-65
2023/09/06 01:08:31;;;;;;;26.60;8.80;;;;;;;15.90;72.54;101464.64;111078;1211;100251;-65
2023/09/06 01:11:18;;;;;;;17.20;7.60;;;;;;;15.87;72.46;101462.06;111263;1207;108459;-65
2023/09/06 01:13:45;;;;;;;19.50;8.50;;;;;;;15.83;72.66;101455.42;111030;1206;140267;-65
2023/09/06 01:16:11;;;;;;;19.90;8.90;;;;;;;15.80;72.75;101449.30;111132;1211;97681;-65
2023/09/06 01:18:37;;;;;;;17.30;8.60;;;;;;;15.79;72.81;101450.77;110994;1211;139914;-65
2023/09/06 01:21:09;;;;;;;17.40;7.80;;;;;;;15.79;73.05;101447.16;111222;1211;97664;-66
2023/09/06 01:23:38;;;;;;;17.20;8.90;;;;;;;15.79;72.97;101447.72;110964;1211;139481;-64
2023/09/06 01:26:05;;;;;;;21.80;8.80;;;;;;;15.77;73.09;101448.34;111102;1211;98018;-65
2023/09/06 01:28:31;;;;;;;21.30;8.70;;;;;;;15.77;73.27;101443.33;111154;1206;98022;-65
2023/09/06 01:30:59;;;;;;;17.50;9.10;;;;;;;15.75;73.22;101441.42;111119;1206;139516;-64
2023/09/06 01:33:27;;;;;;;19.10;8.90;;;;;;;15.74;73.34;101437.88;111139;1211;97584;-66
2023/09/06 01:35:53;;;;;;;18.30;9.60;;;;;;;15.72;73.29;101441.05;111072;1209;141505;-65
2023/09/06 01:38:18;;;;;;;18.60;9.10;;;;;;;15.70;73.37;101443.48;111230;1211;97743;-64
2023/09/06 01:40:44;;;;;;;13.00;8.50;;;;;;;15.68;73.47;101442.00;111280;1209;97864;-65
2023/09/06 01:43:09;;;;;;;16.30;8.50;;;;;;;15.67;73.66;101442.61;111087;1209;139116;-65
2023/09/06 01:45:37;;;;;;;14.90;9.00;;;;;;;15.65;73.71;101443.42;111219;1206;97591;-64
2023/09/06 01:48:03;;;;;;;25.10;10.10;;;;;;;15.63;73.86;101450.89;111044;1206;138811;-64
2023/09/06 01:50:28;;;;;;;17.80;9.00;;;;;;;15.62;73.80;101454.04;110955;1209;97724;-65
2023/09/06 01:52:55;;;;;;;17.40;9.20;;;;;;;15.57;73.80;101451.39;110899;1211;97701;-65
2023/09/06 01:55:21;;;;;;;16.60;9.20;;;;;;;15.54;73.93;101453.70;110670;1209;139800;-65
2023/09/06 01:57:47;;;;;;;20.60;9.60;;;;;;;15.50;74.00;101450.11;111015;1211;97604;-65
2023/09/06 02:00:21;;;;;;;16.20;9.00;;;;;;;15.47;74.13;101455.13;110795;1206;139420;-65
2023/09/06 02:02:47;;;;;;;14.10;8.60;;;;;;;15.46;74.16;101453.38;110982;1208;107428;-65
2023/09/06 02:05:12;;;;;;;22.60;8.80;;;;;;;15.45;74.21;101457.06;110809;1207;97354;-65
2023/09/06 02:07:38;;;;;;;22.40;9.00;;;;;;;15.42;74.27;101460.63;110867;1209;138493;-64
2023/09/06 02:10:04;;;;;;;17.50;8.40;;;;;;;15.40;74.31;101462.91;110893;1208;97536;-65
2023/09/06 02:12:29;;;;;;;15.50;8.40;;;;;;;15.36;74.52;101462.20;110985;1211;140331;-64
2023/09/06 02:14:56;;;;;;;18.20;9.10;;;;;;;15.33;74.53;101460.36;111157;1209;99212;-65
2023/09/06 02:17:23;;;;;;;18.50;10.00;;;;;;;15.30;74.53;101457.64;110873;1206;99550;-65
2023/09/06 02:19:49;;;;;;;15.10;8.00;;;;;;;15.28;74.82;101459.55;110881;1206;138584;-65
2023/09/06 02:22:14;;;;;;;17.30;9.60;;;;;;;15.26;74.79;101456.20;110921;1206;97600;-65
2023/09/06 02:24:39;;;;;;;20.80;8.90;;;;;;;15.22;74.92;101456.40;110850;1209;138591;-65
2023/09/06 02:27:05;;;;;;;22.60;9.80;;;;;;;15.19;74.95;101458.34;110932;1209;97721;-66
2023/09/06 02:29:31;;;;;;;23.70;9.80;;;;;;;15.18;75.07;101463.10;110833;1211;139954;-64
2023/09/06 02:31:56;;;;;;;18.10;9.50;;;;;;;15.17;75.13;101460.98;110944;1209;97598;-66
2023/09/06 02:34:21;;;;;;;26.00;8.60;;;;;;;15.15;75.12;101467.01;110882;1208;97698;-65
2023/09/06 02:36:46;;;;;;;21.70;8.90;;;;;;;15.13;75.29;101469.81;110924;1211;138639;-65
2023/09/06 02:39:13;;;;;;;22.50;8.80;;;;;;;15.09;75.24;101471.63;110846;1206;97630;-65
2023/09/06 02:41:38;;;;;;;13.90;9.10;;;;;;;15.05;75.37;101471.46;110850;1212;139088;-64
2023/09/06 02:44:05;;;;;;;16.20;8.70;;;;;;;15.02;75.44;101471.81;111084;1206;97577;-65
2023/09/06 02:46:33;;;;;;;18.70;8.70;;;;;;;14.98;75.53;101475.58;111207;1210;99567;-65
2023/09/06 02:49:11;;;;;;;15.10;8.40;;;;;;;14.95;75.63;101472.50;110872;1211;138660;-65
2023/09/06 02:51:38;;;;;;;19.00;9.20;;;;;;;14.94;75.77;101472.55;110882;1211;97744;-65
2023/09/06 02:54:03;;;;;;;35.80;19.20;;;;;;;14.94;75.77;101475.61;110986;1211;151500;-65
2023/09/06 02:56:28;;;;;;;18.20;9.10;;;;;;;14.93;75.91;101474.95;110857;1209;97684;-66
2023/09/06 02:58:53;;;;;;;21.20;9.90;;;;;;;14.89;75.99;101479.63;111101;1211;97749;-65
2023/09/06 03:01:19;;;;;;;21.70;9.40;;;;;;;14.87;76.01;101482.40;110879;1206;138579;-65
2023/09/06 03:03:47;;;;;;;15.10;9.20;;;;;;;14.86;76.14;101485.53;111039;1211;97808;-65
2023/09/06 03:06:17;;;;;;;16.60;9.30;;;;;;;14.84;76.19;101488.86;110810;1209;139159;-65
2023/09/06 03:08:46;;;;;;;14.50;9.60;;;;;;;14.82;76.39;101490.21;110957;1211;108008;-65
2023/09/06 03:11:14;;;;;;;18.60;9.70;;;;;;;14.81;76.44;101490.29;110956;1211;96831;-65
2023/09/06 03:13:41;;;;;;;16.10;8.90;;;;;;;14.79;76.43;101490.73;110798;1211;138872;-65
2023/09/06 03:16:07;;;;;;;18.90;9.50;;;;;;;14.75;76.43;101489.47;110986;1209;97682;-65
2023/09/06 03:18:33;;;;;;;16.60;9.20;;;;;;;14.73;76.65;101496.23;110927;1211;139559;-65
2023/09/06 03:21:04;;;;;;;15.50;9.40;;;;;;;14.72;76.67;101494.30;110956;1206;97590;-65
2023/09/06 03:23:29;;;;;;;;;;;;;;;14.70;76.68;101490.08;110932;1211;140176;-64
2023/09/06 03:25:55;;;;;;;16.50;9.20;;;;;;;14.68;76.83;101495.18;110887;1206;98366;-65
2023/09/06 03:28:21;;;;;;;16.60;10.10;;;;;;;14.66;76.81;101497.30;110980;1210;97626;-65
2023/09/06 03:30:47;;;;;;;16.70;9.70;;;;;;;14.63;76.81;101491.48;110760;1209;138748;-65
2023/09/06 03:33:13;;;;;;;19.70;10.20;;;;;;;14.62;76.93;101492.79;111017;1208;97763;-66
2023/09/06 03:35:38;;;;;;;16.60;9.50;;;;;;;14.60;76.90;101489.45;110849;1206;139085;-65
2023/09/06 03:38:08;;;;;;;19.90;11.00;;;;;;;14.58;76.99;101489.91;110866;1207;97726;-65
2023/09/06 03:40:37;;;;;;;20.60;10.10;;;;;;;14.55;76.98;101491.28;110879;1211;97658;-65
2023/09/06 03:43:14;;;;;;;23.40;10.30;;;;;;;14.51;77.04;101490.40;110912;1209;140988;-65
2023/09/06 03:45:43;;;;;;;16.60;10.10;;;;;;;14.48;77.00;101492.34;110961;1209;110616;-65
2023/09/06 03:48:09;;;;;;;21.70;11.20;;;;;;;14.46;77.20;101494.60;110783;1211;139626;-65
2023/09/06 03:50:34;;;;;;;22.50;11.10;;;;;;;14.44;77.24;101492.55;110808;1206;97616;-65
2023/09/06 03:52:59;;;;;;;22.30;10.20;;;;;;;14.41;77.27;101492.65;110976;1211;97585;-65
2023/09/06 03:55:24;;;;;;;19.20;10.70;;;;;;;14.39;77.39;101493.64;110778;1211;138676;-65
2023/09/06 03:57:52;;;;;;;17.70;11.30;;;;;;;14.38;77.44;101494.58;110969;1208;97671;-65
2023/09/06 04:00:26;;;;;;;23.60;12.90;;;;;;;14.36;77.62;101497.02;110739;1211;140225;-66
2023/09/06 04:02:54;;;;;;;25.50;14.10;;;;;;;14.36;77.70;101494.88;110883;1209;97453;-66
2023/09/06 04:05:25;;;;;;;20.70;13.10;;;;;;;14.34;77.77;101494.97;110788;1206;111618;-66
2023/09/06 04:07:53;;;;;;;23.80;11.40;;;;;;;14.33;77.85;101503.29;110933;1206;139185;-65
2023/09/06 04:10:21;;;;;;;19.70;10.90;;;;;;;14.32;77.93;101499.55;110892;1209;108477;-66
2023/09/06 04:12:50;;;;;;;18.80;11.00;;;;;;;14.32;78.05;101500.27;110788;1211;139026;-65
2023/09/06 04:15:16;;;;;;;24.10;11.50;;;;;;;14.31;78.05;101500.66;110870;1211;97682;-65
2023/09/06 04:17:41;;;;;;;21.10;11.30;;;;;;;14.29;78.14;101502.70;110828;1209;139466;-65
2023/09/06 04:20:20;;;;;;;20.90;11.10;;;;;;;14.28;78.10;101504.02;110937;1206;97588;-66
2023/09/06 04:22:47;;;;;;;24.90;11.40;;;;;;;14.28;78.21;101506.20;110922;1211;97699;-66
2023/09/06 04:25:16;;;;;;;27.10;12.10;;;;;;;14.28;78.34;101507.25;110761;1211;140749;-66
2023/09/06 04:27:46;;;;;;;20.10;12.20;;;;;;;14.28;78.39;101511.00;110964;1209;110050;-66
2023/09/06 04:30:15;;;;;;;24.40;13.30;;;;;;;14.29;78.50;101510.08;110816;1206;139735;-66
2023/09/06 04:32:42;;;;;;;23.80;12.90;;;;;;;14.30;78.57;101510.23;110914;1211;107844;-66
2023/09/06 04:35:07;;;;;;;22.10;12.80;;;;;;;14.32;78.54;101510.88;110970;1211;97815;-66
2023/09/06 04:37:35;;;;;;;22.80;13.60;;;;;;;14.32;78.48;101511.91;110877;1206;140397;-65
2023/09/06 04:40:00;;;;;;;28.30;13.10;;;;;;;14.34;78.61;101510.44;110911;1209;100590;-66
2023/09/06 04:42:25;;;;;;;29.40;14.20;;;;;;;14.34;78.59;101510.41;110679;1212;141218;-66
2023/09/06 04:44:50;;;;;;;28.80;14.30;;;;;;;14.36;78.63;101515.36;110891;1208;98992;-66
2023/09/06 04:47:17;;;;;;;24.10;14.40;;;;;;;14.37;78.61;101514.05;110917;1211;97894;-66
2023/09/06 04:49:45;;;;;;;25.10;13.80;;;;;;;14.38;78.66;101516.89;110796;1206;139169;-65
2023/09/06 04:52:10;;;;;;;31.40;14.30;;;;;;;14.38;78.63;101515.44;110922;1211;97566;-66
2023/09/06 04:54:35;;;;;;;32.80;15.90;;;;;;;14.39;78.73;101518.27;110902;1209;139761;-65
2023/09/06 04:57:01;;;;;;;28.50;13.10;;;;;;;14.41;78.78;101517.11;110890;1206;96599;-66
2023/09/06 04:59:26;;;;;;;23.60;14.70;;;;;;;14.43;78.79;101519.89;110903;1211;97680;-66
2023/09/06 05:01:51;;;;;;;37.30;14.60;;;;;;;14.47;78.82;101522.61;110795;1207;97680;-66
2023/09/06 05:04:19;;;;;;;41.10;15.70;;;;;;;14.49;78.95;101523.60;110838;1213;98139;-66
2023/09/06 05:06:44;;;;;;;27.70;14.40;;;;;;;14.51;78.84;101523.70;110772;1211;140083;-65
2023/09/06 05:09:10;;;;;;;24.60;13.70;;;;;;;14.52;78.84;101526.33;111016;1209;97566;-66
2023/09/06 05:11:36;;;;;;;32.60;14.80;;;;;;;14.54;78.92;101530.36;110734;1209;140663;-67
2023/09/06 05:14:01;;;;;;;30.70;15.60;;;;;;;14.57;78.98;101529.88;110877;1209;96395;-65
2023/09/06 05:16:26;;;;;;;27.90;13.90;;;;;;;14.59;78.89;101527.27;110973;1211;97710;-65
2023/09/06 05:18:52;;;;;;;29.90;14.40;;;;;;;14.60;78.99;101531.17;110664;1211;139377;-65
2023/09/06 05:21:18;;;;;;;30.50;13.90;;;;;;;14.63;78.89;101530.14;110821;1210;99309;-66
2023/09/06 05:23:43;;;;;;;29.70;15.10;;;;;;;14.67;79.01;101529.95;110592;1209;138921;-65
2023/09/06 05:26:10;;;;;;;30.90;13.60;;;;;;;14.70;79.00;101530.38;110761;1208;97779;-66
2023/09/06 05:28:35;;;;;;;32.90;14.60;;;;;;;14.73;78.97;101530.80;110780;1211;97767;-66
2023/09/06 05:31:02;;;;;;;40.10;16.10;;;;;;;14.76;78.95;101535.13;110665;1208;139271;-66
2023/09/06 05:33:27;;;;;;;32.10;14.80;;;;;;;14.80;79.04;101532.96;110896;1206;97600;-66
2023/09/06 05:35:54;;;;;;;25.80;14.20;;;;;;;14.82;79.02;101533.56;110741;1209;140243;-65
2023/09/06 05:38:20;;;;;;;34.10;15.20;;;;;;;14.85;79.03;101526.59;110865;1209;97607;-62
2023/09/06 05:40:45;;;;;;;28.40;14.90;;;;;;;14.89;78.96;101526.94;110924;1206;97563;-62
2023/09/06 05:43:10;;;;;;;36.20;13.90;;;;;;;14.93;79.14;101528.54;110821;1211;139361;-61
2023/09/06 05:45:36;;;;;;;33.70;14.20;;;;;;;14.99;79.03;101530.08;110832;1209;97572;-61
2023/09/06 05:48:01;;;;;;;34.20;13.80;;;;;;;15.04;79.16;101533.44;110792;1211;141101;-61
2023/09/06 05:50:29;;;;;;;37.10;14.40;;;;;;;15.09;79.05;101533.57;110840;1211;97680;-62
2023/09/06 05:52:54;;;;;;;27.60;14.30;;;;;;;15.14;79.00;101536.55;110837;1206;99678;-62
2023/09/06 05:55:20;;;;;;;34.30;15.10;;;;;;;15.19;78.99;101537.39;110653;1211;138966;-61
2023/09/06 05:57:45;;;;;;;27.70;13.90;;;;;;;15.23;78.96;101541.33;110849;1206;97574;-62
2023/09/06 06:00:15;;;;;;;27.10;13.00;;;;;;;15.32;79.04;101540.58;110626;1209;139958;-61
2023/09/06 06:02:41;;;;;;;27.30;13.60;;;;;;;15.40;78.89;101538.70;110806;1211;100858;-62
2023/09/06 06:05:07;;;;;;;32.50;14.30;;;;;;;15.47;78.83;101541.60;110759;1209;97632;-62
2023/09/06 06:07:32;;;;;;;32.80;13.20;;;;;;;15.52;78.80;101543.69;110705;1206;140469;-62
2023/09/06 06:09:58;;;;;;;18.70;12.40;;;;;;;15.58;78.77;101543.61;110760;1212;111252;-64
2023/09/06 06:12:24;;;;;;;23.20;13.50;;;;;;;15.63;78.68;101542.99;110719;1211;140305;-61
2023/09/06 06:14:51;;;;;;;29.40;12.50;;;;;;;15.70;78.63;101543.70;110860;1209;97571;-61
2023/09/06 06:17:17;;;;;;;28.20;12.20;;;;;;;15.77;78.71;101547.27;111095;1209;97962;-62
2023/09/06 06:19:43;;;;;;;27.40;13.20;;;;;;;15.85;78.60;101551.58;110675;1211;140253;-62
2023/09/06 06:22:09;;;;;;;30.10;12.70;;;;;;;15.91;78.42;101551.27;110958;1206;97726;-61
2023/09/06 06:24:34;;;;;;;26.20;12.90;;;;;;;15.98;78.58;101554.72;110672;1209;138935;-61
2023/09/06 06:27:00;;;;;;;19.80;10.80;;;;;;;16.05;78.41;101552.34;111019;1212;98442;-62
2023/09/06 06:29:26;;;;;;;32.60;12.40;;;;;;;16.11;78.28;101550.40;110856;1209;97699;-61
2023/09/06 06:31:52;;;;;;;20.70;11.90;;;;;;;16.17;78.23;101550.46;110787;1211;139472;-61
2023/09/06 06:34:18;;;;;;;22.00;11.70;;;;;;;16.24;78.03;101544.89;110809;1211;98106;-62
2023/09/06 06:36:45;;;;;;;23.40;12.00;;;;;;;16.32;78.09;101544.13;110735;1208;139029;-62
2023/09/06 06:39:12;;;;;;;22.60;10.80;;;;;;;16.41;77.99;101546.67;111047;1211;98771;-62
2023/09/06 06:41:38;;;;;;;22.20;12.60;;;;;;;16.49;77.88;101547.51;110773;1206;140228;-61
2023/09/06 06:44:05;;;;;;;27.70;11.20;;;;;;;16.58;77.88;101547.77;110825;1209;97698;-60
2023/09/06 06:46:35;;;;;;;27.70;11.20;;;;;;;16.69;77.86;101547.17;110938;1209;97573;-61
2023/09/06 06:49:04;;;;;;;15.70;10.50;;;;;;;16.80;77.59;101547.84;110901;1210;139483;-60
2023/09/06 06:51:34;;;;;;;19.80;11.30;;;;;;;16.89;77.55;101547.48;110882;1210;98011;-62
2023/09/06 06:54:02;;;;;;;23.30;11.00;;;;;;;16.98;77.42;101547.91;110738;1209;139443;-62
2023/09/06 06:56:27;;;;;;;23.30;11.60;;;;;;;17.06;77.39;101549.09;110901;1211;97932;-62
2023/09/06 06:58:52;;;;;;;21.70;10.70;;;;;;;17.15;77.18;101549.49;110901;1211;97539;-61
2023/09/06 07:01:19;;;;;;;20.10;10.90;;;;;;;17.22;77.25;101545.13;110817;1210;138966;-62
2023/09/06 07:03:44;;;;;;;14.80;9.30;;;;;;;17.28;77.10;101544.80;110842;1211;97645;-63
2023/09/06 07:06:09;;;;;;;19.00;10.20;;;;;;;17.36;77.16;101543.20;110815;1206;138719;-62
2023/09/06 07:08:38;;;;;;;28.10;10.80;;;;;;;17.43;76.92;101539.73;110878;1211;103060;-62
2023/09/06 07:11:04;;;;;;;20.70;9.00;;;;;;;17.50;76.57;101541.89;110935;1211;97615;-62
2023/09/06 07:13:31;;;;;;;17.60;9.30;;;;;;;17.56;76.65;101545.86;110323;1209;139107;-62
2023/09/06 07:15:56;;;;;;;16.90;9.70;;;;;;;17.62;76.51;101550.41;111283;1211;97686;-62
2023/09/06 07:18:22;;;;;;;18.30;9.10;;;;;;;17.69;76.39;101551.08;110773;1209;139205;-62
2023/09/06 07:20:47;;;;;;;17.20;9.80;;;;;;;17.78;76.27;101557.80;110867;1211;97805;-63
2023/09/06 07:23:13;;;;;;;19.60;9.70;;;;;;;17.87;76.16;101552.73;110823;1208;98291;-62
2023/09/06 07:25:39;;;;;;;19.80;9.50;;;;;;;17.94;75.93;101549.59;110747;1211;139131;-62
2023/09/06 07:28:05;;;;;;;15.50;9.10;;;;;;;18.02;75.84;101553.66;111041;1211;97585;-61
2023/09/06 07:30:30;;;;;;;21.50;9.60;;;;;;;18.10;75.80;101552.78;110676;1209;139539;-62
2023/09/06 07:32:55;;;;;;;23.80;10.00;;;;;;;18.19;75.51;101554.27;110794;1211;97699;-62
2023/09/06 07:35:20;;;;;;;18.30;9.00;;;;;;;18.25;75.36;101556.36;110783;1211;97643;-62
2023/09/06 07:37:46;;;;;;;17.70;8.50;;;;;;;18.32;75.29;101557.75;110786;1211;139278;-62
2023/09/06 07:40:11;;;;;;;23.00;9.90;;;;;;;18.39;75.13;101557.85;110867;1206;98138;-63
2023/09/06 07:42:38;;;;;;;16.80;8.00;;;;;;;18.47;74.98;101562.05;110737;1208;139690;-62
2023/09/06 07:45:06;;;;;;;15.10;7.60;;;;;;;18.55;74.82;101561.22;110955;1206;97590;-62
2023/09/06 07:47:32;;;;;;;19.80;7.80;;;;;;;18.64;74.70;101562.34;110722;1211;139792;-62
2023/09/06 07:49:57;;;;;;;17.60;7.30;;;;;;;18.73;74.74;101559.42;110881;1209;97585;-62
2023/09/06 07:52:22;;;;;;;12.50;7.70;;;;;;;18.81;74.57;101558.90;110898;1209;98215;-63
2023/09/06 07:54:47;;;;;;;19.10;7.80;;;;;;;18.91;74.34;101561.55;110760;1211;139493;-62
2023/09/06 07:57:13;;;;;;;17.90;7.90;;;;;;;19.01;74.21;101560.70;110870;1209;97556;-62
2023/09/06 07:59:38;;;;;;;14.30;7.20;;;;;;;19.08;73.94;101561.84;110750;1208;138994;-63
2023/09/06 08:02:04;;;;;;;12.70;7.30;;;;;;;19.17;73.72;101559.67;110929;1209;97677;-62
2023/09/06 08:04:29;;;;;;;13.30;7.10;;;;;;;19.28;73.67;101562.05;110879;1209;97712;-62
2023/09/06 08:06:55;;;;;;;14.90;7.30;;;;;;;19.38;73.41;101566.41;110721;1211;138807;-62
2023/09/06 08:09:21;;;;;;;14.20;7.10;;;;;;;19.46;73.21;101567.89;110943;1209;97593;-62
2023/09/06 08:11:46;;;;;;;15.10;6.80;;;;;;;19.52;73.01;101560.64;110754;1209;139319;-62
2023/09/06 08:14:11;;;;;;;14.90;7.10;;;;;;;19.58;72.83;101563.50;110938;1211;97620;-62
2023/09/06 08:16:36;;;;;;;17.80;7.30;;;;;;;19.67;72.70;101564.73;110835;1211;97642;-62
2023/09/06 08:19:03;;;;;;;13.50;6.70;;;;;;;19.74;72.56;101568.39;110637;1215;140730;-63
2023/09/06 08:21:29;;;;;;;17.90;6.50;;;;;;;19.81;72.32;101567.03;110948;1211;97686;-62
2023/09/06 08:23:54;;;;;;;16.10;6.40;;;;;;;19.87;72.17;101566.65;110815;1209;139322;-63
2023/09/06 08:26:19;;;;;;;12.80;7.10;;;;;;;19.94;71.92;101568.15;110813;1209;97705;-62
2023/09/06 08:28:44;;;;;;;12.20;6.30;;;;;;;20.02;71.78;101575.23;111007;1209;97603;-62
2023/09/06 08:31:10;;;;;;;14.70;6.20;;;;;;;20.08;71.48;101572.64;110776;1211;139481;-63
2023/09/06 08:33:36;;;;;;;9.70;5.90;;;;;;;20.15;71.39;101571.99;110869;1211;98909;-62
2023/09/06 08:36:01;;;;;;;13.50;6.40;;;;;;;20.22;71.13;101572.19;110793;1206;139233;-62
2023/09/06 08:38:27;;;;;;;16.20;7.20;;;;;;;20.28;70.82;101571.75;110823;1209;97777;-62
2023/09/06 08:40:52;;;;;;;21.00;7.20;;;;;;;20.34;70.60;101569.95;110933;1210;98033;-62
2023/09/06 08:43:19;;;;;;;14.10;7.30;;;;;;;20.39;70.41;101578.69;110656;1211;137827;-63
2023/09/06 08:45:47;;;;;;;10.70;6.20;;;;;;;20.46;70.27;101582.77;110865;1209;97695;-62
2023/09/06 08:48:12;;;;;;;12.30;6.30;;;;;;;20.52;70.07;101580.86;110645;1209;139580;-63
2023/09/06 08:50:38;;;;;;;9.50;6.10;;;;;;;20.58;69.84;101581.88;110810;1211;97760;-63
2023/09/06 08:53:05;;;;;;;11.40;6.10;;;;;;;20.64;69.61;101579.30;110823;1209;96505;-62
2023/09/06 08:55:31;;;;;;;12.20;6.40;;;;;;;20.70;69.43;101582.48;110763;1210;139921;-62
2023/09/06 08:57:57;;;;;;;12.70;6.40;;;;;;;20.75;69.41;101584.67;110979;1211;97701;-61
2023/09/06 09:00:23;;;;;;;18.50;5.90;;;;;;;20.83;69.05;101587.35;110804;1209;139099;-62
2023/09/06 09:02:50;;;;;;;16.20;6.00;;;;;;;20.89;68.83;101586.54;110896;1211;97716;-61
2023/09/06 09:05:15;;;;;;;23.90;6.10;;;;;;;20.94;68.69;101588.33;110944;1211;98030;-61
2023/09/06 09:07:41;;;;;;;8.70;5.30;;;;;;;21.00;68.52;101587.17;110777;1211;139734;-61
2023/09/06 09:10:11;;;;;;;11.40;4.90;;;;;;;21.06;68.26;101591.47;111070;1208;99038;-61
2023/09/06 09:12:38;;;;;;;11.40;4.60;;;;;;;21.15;68.20;101589.19;110767;1210;139417;-61
2023/09/06 09:15:05;;;;;;;8.50;5.00;;;;;;;21.23;67.88;101584.79;110919;1211;97738;-60
2023/09/06 09:17:31;;;;;;;11.00;5.20;;;;;;;21.31;67.70;101583.16;110952;1209;137938;-62
2023/09/06 09:20:00;;;;;;;8.50;5.40;;;;;;;21.41;67.42;101584.20;110928;1211;98848;-60
2023/09/06 09:22:27;;;;;;;8.70;5.60;;;;;;;21.53;67.32;101584.05;110783;1211;97693;-61
2023/09/06 09:24:58;;;;;;;10.40;4.90;;;;;;;21.62;67.08;101586.09;110696;1211;137874;-63
2023/09/06 09:27:27;;;;;;;14.10;5.20;;;;;;;21.71;66.66;101584.16;110839;1209;97666;-63
2023/09/06 09:29:58;;;;;;;7.70;5.30;;;;;;;21.78;66.42;101584.70;110871;1209;139412;-63
2023/09/06 09:32:24;;;;;;;11.30;5.00;;;;;;;21.84;66.18;101582.98;110793;1209;100054;-62
2023/09/06 09:34:52;;;;;;;19.10;5.20;;;;;;;21.89;66.16;101584.45;110784;1211;97616;-61
2023/09/06 09:37:18;;;;;;;10.90;4.90;;;;;;;21.99;65.57;101589.30;110862;1211;138156;-62
2023/09/06 09:39:43;;;;;;;13.70;4.40;;;;;;;22.11;65.55;101590.82;110988;1211;97807;-62
2023/09/06 09:42:09;;;;;;;12.70;4.10;;;;;;;22.20;65.25;101596.24;110741;1211;139889;-62
2023/09/06 09:44:34;;;;;;;11.60;4.50;;;;;;;22.30;65.02;101596.23;110797;1209;99623;-61
2023/09/06 09:47:10;;;;;;;14.40;4.50;;;;;;;22.41;64.80;101592.98;110938;1211;97688;-61
2023/09/06 09:49:36;;;;;;;12.70;4.60;;;;;;;22.52;64.27;101591.80;110770;1211;137873;-61
2023/09/06 09:52:02;;;;;;;11.50;4.40;;;;;;;22.58;63.90;101595.49;110830;1209;97584;-62
2023/09/06 09:54:33;;;;;;;11.20;3.90;;;;;;;22.63;63.66;101594.95;110820;1211;138515;-61
2023/09/06 09:57:05;;;;;;;11.90;4.30;;;;;;;22.65;63.26;101597.08;111057;1211;98092;-61
2023/09/06 09:59:36;;;;;;;7.00;3.80;;;;;;;22.73;62.97;101592.30;110924;1208;138826;-61
2023/09/06 10:02:04;;;;;;;15.20;4.10;;;;;;;22.80;62.85;101589.90;110973;1211;100435;-61
2023/09/06 10:04:34;;;;;;;7.40;3.90;;;;;;;22.85;62.65;101588.83;110858;1210;99241;-65
2023/09/06 10:07:01;;;;;;;10.20;4.70;;;;;;;22.88;62.59;101587.98;110692;1211;138292;-61
2023/09/06 10:09:28;;;;;;;17.60;4.20;;;;;;;22.92;62.15;101586.56;110761;1206;97541;-60
2023/09/06 10:11:56;;;;;;;9.30;4.00;;;;;;;23.01;61.93;101582.81;110669;1209;138080;-62
2023/09/06 10:14:25;;;;;;;10.30;4.50;;;;;;;23.07;61.54;101578.99;110751;1211;98629;-62
2023/09/06 10:16:51;;;;;;;10.60;4.50;;;;;;;23.11;61.12;101577.25;110896;1209;99356;-61
2023/09/06 10:19:17;;;;;;;9.20;4.20;;;;;;;23.18;61.35;101582.45;110760;1211;138137;-61
2023/09/06 10:21:43;;;;;;;9.80;3.80;;;;;;;23.30;60.94;101583.85;110949;1207;97671;-61
2023/09/06 10:24:17;;;;;;;9.90;4.00;;;;;;;23.39;60.77;101586.05;110818;1212;138475;-61
2023/09/06 10:26:46;;;;;;;11.50;3.70;;;;;;;23.43;60.54;101584.80;111016;1210;99374;-60
2023/09/06 10:29:18;;;;;;;8.10;3.80;;;;;;;23.46;60.12;101586.52;110842;1221;96763;-61
2023/09/06 10:31:52;;;;;;;6.60;3.80;;;;;;;23.53;60.15;101587.78;110822;1209;137801;-60
2023/09/06 10:34:18;;;;;;;18.30;4.10;;;;;;;23.60;60.02;101589.78;110966;1210;104851;-61
2023/09/06 10:36:56;;;;;;;10.20;4.00;;;;;;;23.64;59.53;101588.13;110814;1212;138686;-61
2023/09/06 10:39:25;;;;;;;8.10;3.20;;;;;;;23.70;59.27;101583.27;110819;1211;99264;-61
2023/09/06 10:42:09;;;;;;;8.50;3.90;;;;;;;23.78;58.77;101581.55;110842;1211;137753;-62
2023/09/06 10:44:56;;;;;;;9.20;3.20;;;;;;;23.89;58.43;101583.63;110827;1212;97591;-61
2023/09/06 10:47:25;;;;;;;4.90;3.20;;;;;;;23.99;58.20;101584.41;110810;1209;102668;-62
2023/09/06 10:50:11;;;;;;;9.50;3.20;;;;;;;24.09;58.13;101585.11;110789;1211;138186;-62
2023/09/06 10:52:48;;;;;;;7.70;3.50;;;;;;;24.18;57.94;101581.55;110627;1209;99574;-62
2023/09/06 10:55:27;;;;;;;7.10;3.60;;;;;;;24.24;57.61;101585.20;110454;1212;139575;-62
2023/09/06 10:57:54;;;;;;;8.80;3.30;;;;;;;24.33;57.51;101584.34;110813;1212;97680;-62
2023/09/06 11:00:27;;;;;;;9.10;3.40;;;;;;;24.40;57.16;101582.23;110700;1207;137773;-61
2023/09/06 11:03:08;;;;;;;5.10;3.10;;;;;;;24.52;56.89;101578.67;110816;1206;97574;-61
2023/09/06 11:05:39;;;;;;;8.30;3.30;;;;;;;24.64;56.59;101581.60;110677;1211;139742;-62